Time;durP1;ratioP1;P1;durP2;ratioP2;P2;SDS_P1;SDS_P2;PMS_P1;PMS_P2;Temp;Humidity;BMP_temperature;BMP_pressure;BME280_temperature;BME280_humidity;BME280_pressure;Samples;Min_cycle;Max_cycle;Signal;HPM_P1;HPM_P2
2023/12/30 00:04:33;;;;;;;0.00;0.00;;;;;;;-146.30;100.00;58188.94;10482646;28;20033;-83
2023/12/30 00:09:34;;;;;;;0.08;0.08;;;;;;;-146.30;100.00;58188.94;10500363;28;20068;-82
2023/12/30 00:14:36;;;;;;;0.00;0.00;;;;;;;-146.30;100.00;58188.94;10467671;28;20052;-83
2023/12/30 00:19:42;;;;;;;0.00;0.00;;;;;;;-146.30;100.00;58188.94;10500458;28;20044;-82
2023/12/30 00:24:44;;;;;;;0.00;0.00;;;;;;;-146.30;100.00;58188.94;10467628;28;20044;-83
2023/12/30 00:29:46;;;;;;;0.00;0.00;;;;;;;-146.30;100.00;58188.94;10474590;28;20487;-82
2023/12/30 00:34:49;;;;;;;0.00;0.00;;;;;;;-146.30;100.00;58188.94;10497837;28;20484;-82
2023/12/30 00:39:53;;;;;;;0.05;0.05;;;;;;;-146.30;100.00;58188.94;10497039;28;20044;-82
2023/12/30 00:44:56;;;;;;;0.03;0.03;;;;;;;-146.30;100.00;58188.94;10489180;28;20048;-82
2023/12/30 00:49:57;;;;;;;0.10;0.10;;;;;;;-146.30;100.00;58188.94;10472904;28;20051;-83
2023/12/30 00:54:59;;;;;;;0.43;0.00;;;;;;;-146.30;100.00;58188.94;10474043;28;20040;-83
2023/12/30 01:00:01;;;;;;;0.00;0.00;;;;;;;-146.30;100.00;58188.94;10476213;28;20502;-82
2023/12/30 01:05:05;;;;;;;0.00;0.00;;;;;;;-146.30;100.00;58188.94;10510502;28;20101;-82
2023/12/30 01:10:08;;;;;;;0.35;0.10;;;;;;;-146.30;100.00;58188.94;10480386;28;20087;-82
2023/12/30 01:15:10;;;;;;;0.00;0.00;;;;;;;-146.30;100.00;58188.94;10479717;28;20040;-82
2023/12/30 01:20:12;;;;;;;0.00;0.00;;;;;;;-146.30;100.00;58188.94;10480685;28;20143;-83
2023/12/30 01:25:14;;;;;;;0.20;0.20;;;;;;;-146.30;100.00;58188.94;10482112;28;20041;-82
2023/12/30 01:30:16;;;;;;;0.00;0.00;;;;;;;-146.30;100.00;58188.94;10478925;28;20510;-82
2023/12/30 01:35:18;;;;;;;1.45;0.73;;;;;;;-146.30;100.00;58188.94;10494611;28;20060;-82
2023/12/30 01:40:20;;;;;;;1.10;0.47;;;;;;;-146.30;100.00;58188.94;10471430;28;20123;-82
2023/12/30 01:45:22;;;;;;;1.00;0.45;;;;;;;-146.30;100.00;58188.94;10495138;28;20036;-82
2023/12/30 01:50:23;;;;;;;0.35;0.25;;;;;;;-146.30;100.00;58188.94;10489333;28;20056;-84
2023/12/30 01:55:25;;;;;;;0.00;0.00;;;;;;;-146.30;100.00;58188.94;10453196;28;20136;-83
2023/12/30 02:00:29;;;;;;;0.32;0.05;;;;;;;-146.30;100.00;58188.94;10482521;28;20117;-83
2023/12/30 02:05:31;;;;;;;0.00;0.00;;;;;;;-146.30;100.00;58188.94;10493457;28;20044;-83
2023/12/30 02:10:33;;;;;;;16.35;0.32;;;;;;;-146.30;100.00;58188.94;10476522;28;20127;-82
2023/12/30 02:15:36;;;;;;;0.20;0.20;;;;;;;-146.30;100.00;58188.94;10458495;28;20090;-82
2023/12/30 02:20:38;;;;;;;0.00;0.00;;;;;;;-146.30;100.00;58188.94;10474054;28;20113;-82
2023/12/30 02:25:40;;;;;;;0.00;0.00;;;;;;;-146.30;100.00;58188.94;10509123;28;20406;-82
2023/12/30 02:30:41;;;;;;;0.10;0.10;;;;;;;-146.30;100.00;58188.94;10476558;28;20063;-82
2023/12/30 02:35:43;;;;;;;0.00;0.00;;;;;;;-146.30;100.00;58188.94;10468236;28;20098;-82
2023/12/30 02:40:46;;;;;;;0.05;0.05;;;;;;;-146.30;100.00;58188.94;10480760;28;20136;-82
2023/12/30 02:45:48;;;;;;;0.00;0.00;;;;;;;-146.30;100.00;58188.94;10468847;28;20435;-81
2023/12/30 02:50:49;;;;;;;0.00;0.00;;;;;;;-146.30;100.00;58188.94;10478546;28;20779;-82
2023/12/30 02:55:51;;;;;;;0.00;0.00;;;;;;;-146.30;100.00;58188.94;10491723;28;20136;-82
2023/12/30 03:00:53;;;;;;;0.22;0.22;;;;;;;-146.30;100.00;58188.94;10451060;28;20041;-82
2023/12/30 03:05:55;;;;;;;0.00;0.00;;;;;;;-146.30;100.00;58188.94;10481904;28;20497;-82
2023/12/30 03:10:56;;;;;;;0.00;0.00;;;;;;;-146.30;100.00;58188.94;10470908;28;20048;-81
2023/12/30 03:15:59;;;;;;;0.00;0.00;;;;;;;-146.30;100.00;58188.94;10444796;28;20579;-82
2023/12/30 03:21:01;;;;;;;0.00;0.00;;;;;;;-146.30;100.00;58188.94;10467672;28;20045;-82
2023/12/30 03:26:04;;;;;;;0.00;0.00;;;;;;;-146.30;100.00;58188.94;10466764;28;20155;-82
2023/12/30 03:31:09;;;;;;;0.35;0.10;;;;;;;-146.30;100.00;58188.94;10476554;28;20070;-82
2023/12/30 03:36:11;;;;;;;0.00;0.00;;;;;;;-146.30;100.00;58188.94;10483145;28;20056;-82
2023/12/30 03:41:13;;;;;;;3.33;0.65;;;;;;;-146.30;100.00;58188.94;10474843;28;20044;-80
2023/12/30 03:46:15;;;;;;;0.00;0.00;;;;;;;-146.30;100.00;58188.94;10454892;28;20132;-82
2023/12/30 03:51:17;;;;;;;1.65;0.43;;;;;;;-146.30;100.00;58188.94;10489642;28;20048;-82
2023/12/30 03:56:18;;;;;;;42.28;0.60;;;;;;;-146.30;100.00;58188.94;10500445;28;20135;-82
2023/12/30 04:01:20;;;;;;;0.20;0.20;;;;;;;-146.30;100.00;58188.94;10472587;28;20402;-82
2023/12/30 04:06:22;;;;;;;0.00;0.00;;;;;;;-146.30;100.00;58188.94;10487089;28;20041;-82
2023/12/30 04:11:24;;;;;;;0.00;0.00;;;;;;;-146.30;100.00;58188.94;10495294;28;20143;-82
2023/12/30 04:16:25;;;;;;;2.30;0.90;;;;;;;-146.30;100.00;58188.94;10474087;28;20045;-82
2023/12/30 04:21:27;;;;;;;0.00;0.00;;;;;;;-146.30;100.00;58188.94;10470735;28;20122;-82
2023/12/30 04:26:29;;;;;;;7.00;0.40;;;;;;;-146.30;100.00;58188.94;10475963;28;20052;-82
2023/12/30 04:31:31;;;;;;;0.47;0.22;;;;;;;-146.30;100.00;58188.94;10489897;28;20076;-82
2023/12/30 04:36:33;;;;;;;0.00;0.00;;;;;;;-146.30;100.00;58188.94;10477385;28;20406;-82
2023/12/30 04:41:35;;;;;;;0.00;0.00;;;;;;;-146.30;100.00;58188.94;10498409;28;20487;-82
2023/12/30 04:46:37;;;;;;;0.17;0.13;;;;;;;-146.30;100.00;58188.94;10463443;28;20064;-82
2023/12/30 04:51:39;;;;;;;0.20;0.20;;;;;;;-146.30;100.00;58188.94;10504112;28;20048;-82
2023/12/30 04:56:41;;;;;;;7.47;0.75;;;;;;;-146.30;100.00;58188.94;10480612;28;20075;-82
2023/12/30 05:01:43;;;;;;;0.30;0.30;;;;;;;-146.30;100.00;58188.94;10484461;28;20071;-82
2023/12/30 05:06:45;;;;;;;1.92;0.50;;;;;;;-146.30;100.00;58188.94;10471938;28;20045;-82
2023/12/30 05:11:48;;;;;;;0.08;0.03;;;;;;;-146.30;100.00;58188.94;10494406;28;20048;-82
2023/12/30 05:16:50;;;;;;;0.00;0.00;;;;;;;-146.30;100.00;58188.94;10466571;28;20136;-82
2023/12/30 05:21:53;;;;;;;0.00;0.00;;;;;;;-146.30;100.00;58188.94;10485785;28;20422;-82
2023/12/30 05:26:55;;;;;;;0.00;0.00;;;;;;;-146.30;100.00;58188.94;10473680;28;20083;-82
2023/12/30 05:31:56;;;;;;;0.10;0.10;;;;;;;-146.30;100.00;58188.94;10494312;28;20693;-81
2023/12/30 05:36:58;;;;;;;0.10;0.00;;;;;;;-146.30;100.00;58188.94;10487005;28;20037;-81
2023/12/30 05:42:02;;;;;;;2.60;0.85;;;;;;;-146.30;100.00;58188.94;10484818;28;20509;-82
2023/12/30 05:47:04;;;;;;;0.38;0.10;;;;;;;-146.30;100.00;58188.94;10478414;28;20041;-81
2023/12/30 05:52:07;;;;;;;0.00;0.00;;;;;;;-146.30;100.00;58188.94;10487708;28;20052;-82
2023/12/30 05:57:09;;;;;;;0.30;0.25;;;;;;;-146.30;100.00;58188.94;10476457;28;20045;-81
2023/12/30 06:02:11;;;;;;;0.20;0.20;;;;;;;-146.30;100.00;58188.94;10484500;28;20515;-81
2023/12/30 06:07:13;;;;;;;0.00;0.00;;;;;;;-146.30;100.00;58188.94;10476600;28;20044;-82
2023/12/30 06:12:14;;;;;;;1.17;0.45;;;;;;;-146.30;100.00;58188.94;10466127;28;20060;-82
2023/12/30 06:17:16;;;;;;;9.75;1.00;;;;;;;-146.30;100.00;58188.94;10472750;28;20498;-81
2023/12/30 06:22:18;;;;;;;0.65;0.65;;;;;;;-146.30;100.00;58188.94;10493276;28;20048;-82
2023/12/30 06:27:20;;;;;;;0.30;0.30;;;;;;;-146.30;100.00;58188.94;10488456;28;20045;-81
2023/12/30 06:32:22;;;;;;;0.15;0.15;;;;;;;-146.30;100.00;58188.94;10460790;28;20079;-82
2023/12/30 06:37:24;;;;;;;1.65;0.43;;;;;;;-146.30;100.00;58188.94;10481030;28;20040;-81
2023/12/30 06:42:26;;;;;;;0.00;0.00;;;;;;;-146.30;100.00;58188.94;10470635;28;20737;-81
2023/12/30 06:47:28;;;;;;;0.00;0.00;;;;;;;-146.30;100.00;58188.94;10472754;28;20095;-81
2023/12/30 06:52:29;;;;;;;0.63;0.43;;;;;;;-146.30;100.00;58188.94;10495375;28;20880;-82
2023/12/30 06:57:31;;;;;;;0.22;0.13;;;;;;;-146.30;100.00;58188.94;10494893;28;20055;-81
2023/12/30 07:02:34;;;;;;;0.10;0.10;;;;;;;-146.30;100.00;58188.94;10475779;28;20119;-82
2023/12/30 07:07:36;;;;;;;0.90;0.75;;;;;;;-146.30;100.00;58188.94;10474482;28;20032;-82
2023/12/30 07:12:38;;;;;;;0.38;0.38;;;;;;;-146.30;100.00;58188.94;10492053;28;20655;-81
2023/12/30 07:17:40;;;;;;;0.10;0.08;;;;;;;-146.30;100.00;58188.94;10464197;28;20048;-81
2023/12/30 07:22:42;;;;;;;0.00;0.00;;;;;;;-146.30;100.00;58188.94;10475169;28;20055;-82
2023/12/30 07:27:44;;;;;;;0.20;0.10;;;;;;;-146.30;100.00;58188.94;10479411;28;20458;-82
2023/12/30 07:32:47;;;;;;;0.00;0.00;;;;;;;-146.30;100.00;58188.94;10459037;28;20045;-82
2023/12/30 07:37:49;;;;;;;0.08;0.08;;;;;;;-146.30;100.00;58188.94;10502817;28;20086;-82
2023/12/30 07:42:50;;;;;;;0.98;0.30;;;;;;;-146.30;100.00;58188.94;10473765;28;20044;-82
2023/12/30 07:47:52;;;;;;;0.15;0.10;;;;;;;-146.30;100.00;58188.94;10487834;28;20051;-82
2023/12/30 07:52:54;;;;;;;0.00;0.00;;;;;;;-146.30;100.00;58188.94;10486699;28;20419;-82
2023/12/30 07:57:56;;;;;;;0.20;0.20;;;;;;;-146.30;100.00;58188.94;10492097;28;20041;-82
2023/12/30 08:02:57;;;;;;;0.20;0.20;;;;;;;-146.30;100.00;58188.94;10510903;28;20098;-83
2023/12/30 08:07:59;;;;;;;0.52;0.47;;;;;;;-146.30;100.00;58188.94;10473748;28;20044;-83
2023/12/30 08:13:03;;;;;;;5.72;1.00;;;;;;;-146.30;100.00;58188.94;10480371;28;20055;-82
2023/12/30 08:18:06;;;;;;;0.10;0.10;;;;;;;-146.30;100.00;58188.94;10476744;28;20122;-82
2023/12/30 08:23:08;;;;;;;0.35;0.25;;;;;;;-146.30;100.00;58188.94;10465570;28;20105;-83
2023/12/30 08:28:09;;;;;;;0.00;0.00;;;;;;;-146.30;100.00;58188.94;10456542;28;20380;-83
2023/12/30 08:33:11;;;;;;;0.10;0.10;;;;;;;-146.30;100.00;58188.94;10476661;28;20044;-83
2023/12/30 08:38:13;;;;;;;0.00;0.00;;;;;;;-146.30;100.00;58188.94;10476002;28;20041;-82
2023/12/30 08:43:15;;;;;;;0.00;0.00;;;;;;;-146.30;100.00;58188.94;10477130;28;20052;-82
2023/12/30 08:48:17;;;;;;;0.70;0.22;;;;;;;-146.30;100.00;58188.94;10511332;28;20041;-82
2023/12/30 08:53:24;;;;;;;0.00;0.00;;;;;;;-146.30;100.00;58188.94;10502930;28;20048;-82
2023/12/30 08:58:26;;;;;;;0.00;0.00;;;;;;;-146.30;100.00;58188.94;10496332;28;20040;-81
2023/12/30 09:03:28;;;;;;;0.00;0.00;;;;;;;-146.30;100.00;58188.94;10493334;28;20063;-82
2023/12/30 09:08:30;;;;;;;0.00;0.00;;;;;;;-146.30;100.00;58188.94;10511947;28;20537;-81
2023/12/30 09:13:31;;;;;;;1.10;0.32;;;;;;;-146.30;100.00;58188.94;10499249;28;20048;-82
2023/12/30 09:18:33;;;;;;;0.00;0.00;;;;;;;-146.30;100.00;58188.94;10468137;28;20138;-84
2023/12/30 09:23:35;;;;;;;0.68;0.57;;;;;;;-146.30;100.00;58188.94;10483517;28;20040;-82
2023/12/30 09:28:37;;;;;;;0.10;0.10;;;;;;;-146.30;100.00;58188.94;10479957;28;20133;-82
2023/12/30 09:33:39;;;;;;;0.08;0.08;;;;;;;-146.30;100.00;58188.94;10482225;28;20499;-81
2023/12/30 09:38:41;;;;;;;0.00;0.00;;;;;;;-146.30;100.00;58188.94;10459605;28;20041;-81
2023/12/30 09:43:44;;;;;;;0.00;0.00;;;;;;;-146.30;100.00;58188.94;10490339;28;20140;-82
2023/12/30 09:48:46;;;;;;;0.10;0.10;;;;;;;-146.30;100.00;58188.94;10478221;28;20033;-83
2023/12/30 09:53:48;;;;;;;0.10;0.10;;;;;;;-146.30;100.00;58188.94;10477974;28;20137;-82
2023/12/30 09:58:50;;;;;;;0.00;0.00;;;;;;;-146.30;100.00;58188.94;10496531;28;20058;-82
2023/12/30 10:03:52;;;;;;;0.45;0.22;;;;;;;-146.30;100.00;58188.94;10480721;28;20507;-82
2023/12/30 10:08:54;;;;;;;0.03;0.03;;;;;;;-146.30;100.00;58188.94;10491332;28;20072;-81
2023/12/30 10:13:56;;;;;;;0.25;0.00;;;;;;;-146.30;100.00;58188.94;10481651;28;20475;-82
2023/12/30 10:18:58;;;;;;;0.00;0.00;;;;;;;-146.30;100.00;58188.94;10511579;28;20045;-81
2023/12/30 10:24:00;;;;;;;1.95;0.65;;;;;;;-146.30;100.00;58188.94;10478370;28;20122;-82
2023/12/30 10:29:02;;;;;;;0.50;0.28;;;;;;;-146.30;100.00;58188.94;10477187;28;20560;-82
2023/12/30 10:34:05;;;;;;;0.00;0.00;;;;;;;-146.30;100.00;58188.94;10476812;28;20058;-81
2023/12/30 10:39:08;;;;;;;1.25;0.32;;;;;;;-146.30;100.00;58188.94;10489375;28;20041;-82
2023/12/30 10:44:10;;;;;;;0.28;0.17;;;;;;;-146.30;100.00;58188.94;10477972;28;20053;-81
2023/12/30 10:49:15;;;;;;;0.63;0.32;;;;;;;-146.30;100.00;58188.94;10499075;28;20461;-82
2023/12/30 10:54:26;;;;;;;0.20;0.20;;;;;;;-146.30;100.00;58188.94;10475950;28;20127;-81
2023/12/30 10:59:29;;;;;;;0.00;0.00;;;;;;;-146.30;100.00;58188.94;10491374;28;20041;-82
2023/12/30 11:04:31;;;;;;;0.00;0.00;;;;;;;-146.30;100.00;58188.94;10467977;28;20072;-81
2023/12/30 11:09:33;;;;;;;0.47;0.47;;;;;;;-146.30;100.00;58188.94;10492160;28;20090;-82
2023/12/30 11:14:36;;;;;;;5.57;0.73;;;;;;;-146.30;100.00;58188.94;10470965;28;20569;-81
2023/12/30 11:19:39;;;;;;;0.30;0.30;;;;;;;-146.30;100.00;58188.94;10490674;28;20503;-81
2023/12/30 11:24:47;;;;;;;3.25;0.65;;;;;;;-146.30;100.00;58188.94;10474891;28;20040;-82
2023/12/30 11:29:53;;;;;;;0.00;0.00;;;;;;;-146.30;100.00;58188.94;10461796;28;20060;-83
2023/12/30 11:34:54;;;;;;;0.10;0.10;;;;;;;-146.30;100.00;58188.94;10478802;28;20048;-83
2023/12/30 11:39:58;;;;;;;0.25;0.25;;;;;;;-146.30;100.00;58188.94;10482995;28;20393;-82
2023/12/30 11:45:00;;;;;;;0.10;0.10;;;;;;;-146.30;100.00;58188.94;10474116;28;20131;-82
2023/12/30 11:50:05;;;;;;;0.15;0.15;;;;;;;-146.30;100.00;58188.94;10497146;28;20089;-82
2023/12/30 11:55:07;;;;;;;0.00;0.00;;;;;;;-146.30;100.00;58188.94;10476998;28;20047;-81
2023/12/30 12:00:10;;;;;;;0.00;0.00;;;;;;;-146.30;100.00;58188.94;10475577;28;20047;-82
2023/12/30 12:05:14;;;;;;;0.32;0.32;;;;;;;-146.30;100.00;58188.94;10473730;28;20045;-81
2023/12/30 12:10:16;;;;;;;0.95;0.68;;;;;;;-146.30;100.00;58188.94;10477921;28;20040;-82
2023/12/30 12:15:18;;;;;;;0.05;0.05;;;;;;;-146.30;100.00;58188.94;10481136;28;20082;-81
2023/12/30 12:20:19;;;;;;;0.00;0.00;;;;;;;-146.30;100.00;58188.94;10487528;28;20045;-81
2023/12/30 12:25:23;;;;;;;1.90;0.98;;;;;;;-146.30;100.00;58188.94;10472155;28;20040;-81
2023/12/30 12:30:25;;;;;;;0.43;0.28;;;;;;;-146.30;100.00;58188.94;10496013;28;20487;-82
2023/12/30 12:35:27;;;;;;;0.93;0.68;;;;;;;-146.30;100.00;58188.94;10517397;28;20052;-82
2023/12/30 12:40:28;;;;;;;0.00;0.00;;;;;;;-146.30;100.00;58188.94;10466570;28;20044;-83
2023/12/30 12:45:30;;;;;;;2.60;1.48;;;;;;;-146.30;100.00;58188.94;10493001;28;20053;-82
2023/12/30 12:50:32;;;;;;;0.10;0.10;;;;;;;-146.30;100.00;58188.94;10509200;28;20060;-82
2023/12/30 12:55:35;;;;;;;0.47;0.20;;;;;;;-146.30;100.00;58188.94;10500973;28;20510;-83
2023/12/30 13:00:42;;;;;;;0.98;0.75;;;;;;;-146.30;100.00;58188.94;10495788;28;20785;-82
2023/12/30 13:05:44;;;;;;;0.40;0.30;;;;;;;-146.30;100.00;58188.94;10490708;28;20071;-82
2023/12/30 13:10:49;;;;;;;0.75;0.35;;;;;;;-146.30;100.00;58188.94;10493551;28;20483;-83
2023/12/30 13:15:54;;;;;;;0.20;0.20;;;;;;;-146.30;100.00;58188.94;10480860;28;20044;-83
2023/12/30 13:20:58;;;;;;;0.63;0.20;;;;;;;-146.30;100.00;58188.94;10515959;28;20060;-83
2023/12/30 13:26:00;;;;;;;0.30;0.30;;;;;;;-146.30;100.00;58188.94;10506591;28;20048;-82
2023/12/30 13:31:05;;;;;;;1.65;1.02;;;;;;;-146.30;100.00;58188.94;10472015;28;20483;-83
2023/12/30 13:36:12;;;;;;;0.35;0.30;;;;;;;-146.30;100.00;58188.94;10463355;28;20060;-84
2023/12/30 13:41:14;;;;;;;0.65;0.43;;;;;;;-146.30;100.00;58188.94;10491124;28;20052;-84
2023/12/30 13:51:33;;;;;;;1.10;0.28;;;;;;;-146.30;100.00;58188.94;10482103;28;20052;-83
2023/12/30 13:56:37;;;;;;;0.55;0.55;;;;;;;-146.30;100.00;58188.94;10481054;28;20042;-84
2023/12/30 14:01:39;;;;;;;0.15;0.10;;;;;;;-146.30;100.00;58188.94;10478147;28;20135;-84
2023/12/30 14:06:43;;;;;;;0.35;0.20;;;;;;;-146.30;100.00;58188.94;10504041;28;20131;-83
2023/12/30 14:11:50;;;;;;;0.30;0.20;;;;;;;-146.30;100.00;58188.94;10467928;28;20135;-84
2023/12/30 14:16:51;;;;;;;0.20;0.20;;;;;;;-146.30;100.00;58188.94;10491646;28;20090;-84
2023/12/30 14:21:53;;;;;;;0.73;0.40;;;;;;;-146.30;100.00;58188.94;10485543;28;20062;-83
2023/12/30 14:26:55;;;;;;;1.80;0.63;;;;;;;-146.30;100.00;58188.94;10478145;28;20068;-84
2023/12/30 14:31:57;;;;;;;0.47;0.30;;;;;;;-146.30;100.00;58188.94;10465544;28;20131;-83
2023/12/30 14:36:59;;;;;;;0.65;0.65;;;;;;;-146.30;100.00;58188.94;10497289;28;20047;-83
2023/12/30 14:42:01;;;;;;;0.00;0.00;;;;;;;-146.30;100.00;58188.94;10510936;28;20048;-83
2023/12/30 14:47:03;;;;;;;0.20;0.20;;;;;;;-146.30;100.00;58188.94;10478468;28;20497;-84
2023/12/30 14:52:05;;;;;;;0.55;0.15;;;;;;;-146.30;100.00;58188.94;10482098;28;20063;-83
2023/12/30 14:57:07;;;;;;;0.00;0.00;;;;;;;-146.30;100.00;58188.94;10488204;28;20048;-83
2023/12/30 15:02:09;;;;;;;0.98;0.28;;;;;;;-146.30;100.00;58188.94;10491366;28;20044;-83
2023/12/30 15:07:14;;;;;;;0.20;0.20;;;;;;;-146.30;100.00;58188.94;10469880;28;20040;-85
2023/12/30 15:12:20;;;;;;;1.23;0.38;;;;;;;-146.30;100.00;58188.94;10471841;28;20059;-84
2023/12/30 15:17:22;;;;;;;0.20;0.20;;;;;;;-146.30;100.00;58188.94;10455602;28;20040;-87
2023/12/30 15:22:26;;;;;;;3.30;0.63;;;;;;;-146.30;100.00;58188.94;10483493;28;20051;-88
2023/12/30 15:27:28;;;;;;;1.23;0.68;;;;;;;-146.30;100.00;58188.94;10492766;28;20052;-88
2023/12/30 15:32:30;;;;;;;0.28;0.28;;;;;;;-146.30;100.00;58188.94;10490209;28;20545;-89
2023/12/30 15:37:32;;;;;;;4.15;2.67;;;;;;;-146.30;100.00;58188.94;10466978;28;20037;-87
2023/12/30 15:42:34;;;;;;;0.10;0.00;;;;;;;-146.30;100.00;58188.94;10462217;28;20056;-87
2023/12/30 15:47:36;;;;;;;0.43;0.22;;;;;;;-146.30;100.00;58188.94;10480632;28;20915;-89
2023/12/30 15:52:38;;;;;;;0.63;0.47;;;;;;;-146.30;100.00;58188.94;10486609;28;20051;-89
2023/12/30 15:57:40;;;;;;;0.35;0.10;;;;;;;-146.30;100.00;58188.94;10480096;28;20041;-88
2023/12/30 16:02:42;;;;;;;2.65;1.02;;;;;;;-146.30;100.00;58188.94;10477293;28;20134;-88
2023/12/30 16:07:44;;;;;;;0.52;0.52;;;;;;;-146.30;100.00;58188.94;10474709;28;20135;-90
2023/12/30 16:12:46;;;;;;;0.10;0.03;;;;;;;-146.30;100.00;58188.94;10477888;28;20055;-90
2023/12/30 16:17:48;;;;;;;0.00;0.00;;;;;;;-146.30;100.00;58188.94;10480060;28;20132;-89
2023/12/30 16:22:50;;;;;;;0.20;0.10;;;;;;;-146.30;100.00;58188.94;10486208;28;20048;-90
2023/12/30 16:27:52;;;;;;;0.13;0.13;;;;;;;-146.30;100.00;58188.94;10490241;28;20128;-88
2023/12/30 16:32:54;;;;;;;0.20;0.13;;;;;;;-146.30;100.00;58188.94;10481872;28;20049;-90
2023/12/30 16:37:56;;;;;;;0.00;0.00;;;;;;;-146.30;100.00;58188.94;10470321;28;20040;-92
2023/12/30 16:42:57;;;;;;;0.00;0.00;;;;;;;-146.30;100.00;58188.94;10476823;28;20526;-88
2023/12/30 16:48:00;;;;;;;0.40;0.17;;;;;;;-146.30;100.00;58188.94;10489827;28;20086;-90
2023/12/30 16:53:02;;;;;;;0.32;0.08;;;;;;;-146.30;100.00;58188.94;10474936;28;20094;-87
2023/12/30 16:58:04;;;;;;;0.52;0.47;;;;;;;-146.30;100.00;58188.94;10483531;28;20599;-85
2023/12/30 17:03:06;;;;;;;24.45;0.43;;;;;;;-146.30;100.00;58188.94;10497038;28;20436;-88
2023/12/30 17:08:08;;;;;;;3.38;0.52;;;;;;;-146.30;100.00;58188.94;10497156;28;20125;-88
2023/12/30 17:13:10;;;;;;;1.35;0.40;;;;;;;-146.30;100.00;58188.94;10484964;28;20418;-90
2023/12/30 17:18:12;;;;;;;0.20;0.20;;;;;;;-146.30;100.00;58188.94;10480510;28;20040;-88
2023/12/30 17:23:14;;;;;;;0.10;0.10;;;;;;;-146.30;100.00;58188.94;10484189;28;20048;-90
2023/12/30 17:28:16;;;;;;;0.50;0.50;;;;;;;-146.30;100.00;58188.94;10481876;28;20072;-90
2023/12/30 17:33:18;;;;;;;0.00;0.00;;;;;;;-146.30;100.00;58188.94;10481772;28;20152;-90
2023/12/30 17:38:20;;;;;;;2.40;1.45;;;;;;;-146.30;100.00;58188.94;10478466;28;20067;-88
2023/12/30 17:43:21;;;;;;;0.57;0.30;;;;;;;-146.30;100.00;58188.94;10463780;28;20059;-88
2023/12/30 17:48:23;;;;;;;0.38;0.38;;;;;;;-146.30;100.00;58188.94;10481945;28;20090;-88
2023/12/30 17:53:27;;;;;;;0.00;0.00;;;;;;;-146.30;100.00;58188.94;10481893;28;20411;-88
2023/12/30 17:58:29;;;;;;;0.00;0.00;;;;;;;-146.30;100.00;58188.94;10483090;28;20040;-89
2023/12/30 18:03:31;;;;;;;0.32;0.22;;;;;;;-146.30;100.00;58188.94;10477131;28;20114;-88
2023/12/30 18:08:33;;;;;;;0.10;0.10;;;;;;;-146.30;100.00;58188.94;10480801;28;20052;-88
2023/12/30 18:13:35;;;;;;;0.22;0.20;;;;;;;-146.30;100.00;58188.94;10478795;28;20056;-88
2023/12/30 18:18:37;;;;;;;0.03;0.03;;;;;;;-146.30;100.00;58188.94;10481203;28;20162;-88
2023/12/30 18:23:38;;;;;;;0.30;0.30;;;;;;;-146.30;100.00;58188.94;10462801;28;20055;-88
2023/12/30 18:28:41;;;;;;;0.32;0.25;;;;;;;-146.30;100.00;58188.94;10482300;28;20055;-87
2023/12/30 18:33:43;;;;;;;0.00;0.00;;;;;;;-146.30;100.00;58188.94;10481124;28;20048;-90
2023/12/30 18:38:45;;;;;;;0.35;0.35;;;;;;;-146.30;100.00;58188.94;10467854;28;20044;-89
2023/12/30 18:43:48;;;;;;;0.20;0.20;;;;;;;-146.30;100.00;58188.94;10475351;28;20060;-89
2023/12/30 18:48:50;;;;;;;2.65;0.25;;;;;;;-146.30;100.00;58188.94;10475962;28;20071;-90
2023/12/30 18:53:52;;;;;;;1.08;0.98;;;;;;;-146.30;100.00;58188.94;10477766;28;20067;-91
2023/12/30 18:58:54;;;;;;;0.10;0.05;;;;;;;-146.30;100.00;58188.94;10484378;28;20132;-89
2023/12/30 19:03:59;;;;;;;1.58;1.13;;;;;;;-146.30;100.00;58188.94;10486429;28;20515;-89
2023/12/30 19:09:02;;;;;;;2.42;0.63;;;;;;;-146.30;100.00;58188.94;10476876;28;20044;-88
2023/12/30 19:14:04;;;;;;;0.40;0.40;;;;;;;-146.30;100.00;58188.94;10469381;28;20048;-88
2023/12/30 19:19:06;;;;;;;0.00;0.00;;;;;;;-146.30;100.00;58188.94;10504211;28;20156;-89
2023/12/30 19:24:09;;;;;;;0.03;0.03;;;;;;;-146.30;100.00;58188.94;10496788;28;20048;-88
2023/12/30 19:29:11;;;;;;;0.00;0.00;;;;;;;-146.30;100.00;58188.94;10478637;28;20072;-90
2023/12/30 19:34:15;;;;;;;0.90;0.20;;;;;;;-146.30;100.00;58188.94;10480644;28;20048;-90
2023/12/30 19:39:18;;;;;;;1.17;0.60;;;;;;;-146.30;100.00;58188.94;10461997;28;20036;-89
2023/12/30 19:44:20;;;;;;;0.15;0.00;;;;;;;-146.30;100.00;58188.94;10481703;28;20052;-90
2023/12/30 19:49:22;;;;;;;0.00;0.00;;;;;;;-146.30;100.00;58188.94;10483207;28;20068;-89
2023/12/30 19:54:25;;;;;;;0.57;0.57;;;;;;;-146.30;100.00;58188.94;10494936;28;20476;-90
2023/12/30 19:59:28;;;;;;;0.00;0.00;;;;;;;-146.30;100.00;58188.94;10478015;28;20044;-89
2023/12/30 20:04:30;;;;;;;0.30;0.25;;;;;;;-146.30;100.00;58188.94;10480490;28;20059;-90
2023/12/30 20:09:32;;;;;;;0.10;0.10;;;;;;;-146.30;100.00;58188.94;10494495;28;20047;-90
2023/12/30 20:14:34;;;;;;;0.10;0.10;;;;;;;-146.30;100.00;58188.94;10487072;28;20040;-89
2023/12/30 20:19:37;;;;;;;0.25;0.25;;;;;;;-146.30;100.00;58188.94;10491391;28;20068;-89
2023/12/30 20:24:39;;;;;;;0.40;0.40;;;;;;;-146.30;100.00;58188.94;10488124;28;20140;-88
2023/12/30 20:29:42;;;;;;;0.03;0.03;;;;;;;-146.30;100.00;58188.94;10521667;28;20135;-91
2023/12/30 20:34:45;;;;;;;0.57;0.35;;;;;;;-146.30;100.00;58188.94;10471770;28;20055;-88
2023/12/30 20:39:48;;;;;;;0.35;0.30;;;;;;;-146.30;100.00;58188.94;10485799;28;20041;-89
2023/12/30 20:44:50;;;;;;;0.00;0.00;;;;;;;-146.30;100.00;58188.94;10468269;28;20123;-88
2023/12/30 20:49:52;;;;;;;0.52;0.32;;;;;;;-146.30;100.00;58188.94;10496748;28;20376;-90
2023/12/30 20:54:54;;;;;;;0.52;0.47;;;;;;;-146.30;100.00;58188.94;10496243;28;20049;-90
2023/12/30 20:59:56;;;;;;;0.00;0.00;;;;;;;-146.30;100.00;58188.94;10485916;28;20097;-90
2023/12/30 21:04:57;;;;;;;0.13;0.05;;;;;;;-146.30;100.00;58188.94;10469428;28;20087;-90
2023/12/30 21:09:59;;;;;;;0.00;0.00;;;;;;;-146.30;100.00;58188.94;10481427;28;20102;-90
2023/12/30 21:15:01;;;;;;;0.10;0.10;;;;;;;-146.30;100.00;58188.94;10485731;28;20079;-91
2023/12/30 21:20:04;;;;;;;0.95;0.60;;;;;;;-146.30;100.00;58188.94;10484521;28;20106;-89
2023/12/30 21:25:07;;;;;;;0.28;0.15;;;;;;;-146.30;100.00;58188.94;10502179;28;20072;-89
2023/12/30 21:30:24;;;;;;;0.13;0.13;;;;;;;-146.30;100.00;58188.94;10470633;28;20055;-90
2023/12/30 21:35:26;;;;;;;0.00;0.00;;;;;;;-146.30;100.00;58188.94;10483396;28;20408;-91
2023/12/30 21:40:28;;;;;;;0.00;0.00;;;;;;;-146.30;100.00;58188.94;10500263;28;20041;-88
2023/12/30 21:45:30;;;;;;;0.17;0.17;;;;;;;-146.30;100.00;58188.94;10483238;28;20136;-92
2023/12/30 21:50:32;;;;;;;0.00;0.00;;;;;;;-146.30;100.00;58188.94;10504083;28;20136;-90
2023/12/30 21:55:34;;;;;;;0.47;0.38;;;;;;;-146.30;100.00;58188.94;10479884;28;20071;-90
2023/12/30 22:00:36;;;;;;;0.00;0.00;;;;;;;-146.30;100.00;58188.94;10482054;28;20495;-88
2023/12/30 22:05:42;;;;;;;0.00;0.00;;;;;;;-146.30;100.00;58188.94;10499231;28;20060;-90
2023/12/30 22:10:44;;;;;;;0.28;0.22;;;;;;;-146.30;100.00;58188.94;10481485;28;20226;-90
2023/12/30 22:15:46;;;;;;;0.57;0.17;;;;;;;-146.30;100.00;58188.94;10465590;28;20148;-90
2023/12/30 22:20:48;;;;;;;1.85;0.63;;;;;;;-146.30;100.00;58188.94;10495591;28;20123;-89
2023/12/30 22:25:50;;;;;;;0.75;0.30;;;;;;;-146.30;100.00;58188.94;10476290;28;20040;-89
2023/12/30 22:30:52;;;;;;;0.00;0.00;;;;;;;-146.30;100.00;58188.94;10478490;28;20502;-91
2023/12/30 22:35:54;;;;;;;0.15;0.10;;;;;;;-146.30;100.00;58188.94;10476229;28;20063;-90
2023/12/30 22:40:59;;;;;;;0.00;0.00;;;;;;;-146.30;100.00;58188.94;10477749;28;20049;-90
2023/12/30 22:46:01;;;;;;;0.73;0.20;;;;;;;-146.30;100.00;58188.94;10462392;28;20044;-91